sensor_id;sensor_type;location;lat;lon;timestamp;P1;durP1;ratioP1;P2;durP2;ratioP2
15449;SDS011;7826;49.784;9.934;2024-02-28T00:01:24;24.40;;;13.27;;
15449;SDS011;7826;49.784;9.934;2024-02-28T00:03:50;24.73;;;13.63;;
15449;SDS011;7826;49.784;9.934;2024-02-28T00:06:16;29.43;;;14.70;;
15449;SDS011;7826;49.784;9.934;2024-02-28T00:08:43;23.67;;;12.90;;
15449;SDS011;7826;49.784;9.934;2024-02-28T00:11:09;23.57;;;13.30;;
15449;SDS011;7826;49.784;9.934;2024-02-28T00:13:36;25.53;;;13.10;;
15449;SDS011;7826;49.784;9.934;2024-02-28T00:16:02;28.47;;;14.03;;
15449;SDS011;7826;49.784;9.934;2024-02-28T00:18:29;29.00;;;14.00;;
15449;SDS011;7826;49.784;9.934;2024-02-28T00:20:56;29.60;;;13.60;;
15449;SDS011;7826;49.784;9.934;2024-02-28T00:23:22;24.40;;;12.70;;
15449;SDS011;7826;49.784;9.934;2024-02-28T00:25:49;26.67;;;13.03;;
15449;SDS011;7826;49.784;9.934;2024-02-28T00:28:15;32.77;;;14.47;;
15449;SDS011;7826;49.784;9.934;2024-02-28T00:30:41;25.67;;;13.03;;
15449;SDS011;7826;49.784;9.934;2024-02-28T00:33:07;25.07;;;14.47;;
15449;SDS011;7826;49.784;9.934;2024-02-28T00:35:33;27.67;;;14.73;;
15449;SDS011;7826;49.784;9.934;2024-02-28T00:38:00;28.40;;;14.17;;
15449;SDS011;7826;49.784;9.934;2024-02-28T00:40:26;29.17;;;13.93;;
15449;SDS011;7826;49.784;9.934;2024-02-28T00:42:54;21.80;;;13.00;;
15449;SDS011;7826;49.784;9.934;2024-02-28T00:45:20;30.63;;;14.47;;
15449;SDS011;7826;49.784;9.934;2024-02-28T00:47:46;25.17;;;13.00;;
15449;SDS011;7826;49.784;9.934;2024-02-28T00:50:13;25.00;;;12.60;;
15449;SDS011;7826;49.784;9.934;2024-02-28T00:52:39;24.23;;;13.30;;
15449;SDS011;7826;49.784;9.934;2024-02-28T00:55:06;27.17;;;13.17;;
15449;SDS011;7826;49.784;9.934;2024-02-28T00:57:33;27.20;;;13.03;;
15449;SDS011;7826;49.784;9.934;2024-02-28T00:59:59;25.97;;;13.73;;
15449;SDS011;7826;49.784;9.934;2024-02-28T01:02:25;25.13;;;12.90;;
15449;SDS011;7826;49.784;9.934;2024-02-28T01:04:51;24.03;;;13.50;;
15449;SDS011;7826;49.784;9.934;2024-02-28T01:07:17;27.13;;;13.60;;
15449;SDS011;7826;49.784;9.934;2024-02-28T01:09:43;26.43;;;13.27;;
15449;SDS011;7826;49.784;9.934;2024-02-28T01:12:10;24.53;;;13.60;;
15449;SDS011;7826;49.784;9.934;2024-02-28T01:14:36;27.40;;;13.80;;
15449;SDS011;7826;49.784;9.934;2024-02-28T01:17:02;23.77;;;12.30;;
15449;SDS011;7826;49.784;9.934;2024-02-28T01:19:28;28.10;;;14.30;;
15449;SDS011;7826;49.784;9.934;2024-02-28T01:21:54;30.33;;;13.57;;
15449;SDS011;7826;49.784;9.934;2024-02-28T01:24:20;23.13;;;12.57;;
15449;SDS011;7826;49.784;9.934;2024-02-28T01:26:46;24.13;;;12.83;;
15449;SDS011;7826;49.784;9.934;2024-02-28T01:29:13;26.63;;;13.93;;
15449;SDS011;7826;49.784;9.934;2024-02-28T01:31:40;23.63;;;13.03;;
15449;SDS011;7826;49.784;9.934;2024-02-28T01:34:06;23.40;;;12.80;;
15449;SDS011;7826;49.784;9.934;2024-02-28T01:36:32;23.17;;;11.97;;
15449;SDS011;7826;49.784;9.934;2024-02-28T01:38:58;20.23;;;11.93;;
15449;SDS011;7826;49.784;9.934;2024-02-28T01:41:24;19.90;;;11.73;;
15449;SDS011;7826;49.784;9.934;2024-02-28T01:43:50;23.13;;;12.43;;
15449;SDS011;7826;49.784;9.934;2024-02-28T01:46:25;22.20;;;12.30;;
15449;SDS011;7826;49.784;9.934;2024-02-28T01:48:55;24.43;;;12.23;;
15449;SDS011;7826;49.784;9.934;2024-02-28T01:51:25;27.33;;;12.93;;
15449;SDS011;7826;49.784;9.934;2024-02-28T01:53:53;22.00;;;12.40;;
15449;SDS011;7826;49.784;9.934;2024-02-28T01:56:20;24.83;;;12.90;;
15449;SDS011;7826;49.784;9.934;2024-02-28T01:58:48;21.03;;;11.60;;
15449;SDS011;7826;49.784;9.934;2024-02-28T02:01:15;22.03;;;12.23;;
15449;SDS011;7826;49.784;9.934;2024-02-28T02:03:43;26.30;;;13.27;;
15449;SDS011;7826;49.784;9.934;2024-02-28T02:06:09;26.00;;;12.60;;
15449;SDS011;7826;49.784;9.934;2024-02-28T02:08:37;22.70;;;12.53;;
15449;SDS011;7826;49.784;9.934;2024-02-28T02:11:04;26.67;;;13.33;;
15449;SDS011;7826;49.784;9.934;2024-02-28T02:13:31;24.90;;;13.17;;
15449;SDS011;7826;49.784;9.934;2024-02-28T02:15:58;24.53;;;13.07;;
15449;SDS011;7826;49.784;9.934;2024-02-28T02:18:24;24.00;;;13.17;;
15449;SDS011;7826;49.784;9.934;2024-02-28T02:20:50;25.63;;;13.83;;
15449;SDS011;7826;49.784;9.934;2024-02-28T02:23:24;31.00;;;12.33;;
15449;SDS011;7826;49.784;9.934;2024-02-28T02:25:50;28.33;;;13.30;;
15449;SDS011;7826;49.784;9.934;2024-02-28T02:28:16;26.13;;;12.90;;
15449;SDS011;7826;49.784;9.934;2024-02-28T02:30:42;26.57;;;13.57;;
15449;SDS011;7826;49.784;9.934;2024-02-28T02:33:08;28.33;;;14.77;;
15449;SDS011;7826;49.784;9.934;2024-02-28T02:35:35;27.70;;;15.00;;
15449;SDS011;7826;49.784;9.934;2024-02-28T02:38:01;28.87;;;13.63;;
15449;SDS011;7826;49.784;9.934;2024-02-28T02:40:27;30.07;;;14.57;;
15449;SDS011;7826;49.784;9.934;2024-02-28T02:42:53;26.20;;;12.53;;
15449;SDS011;7826;49.784;9.934;2024-02-28T02:45:19;24.13;;;13.33;;
15449;SDS011;7826;49.784;9.934;2024-02-28T02:47:45;24.23;;;13.53;;
15449;SDS011;7826;49.784;9.934;2024-02-28T02:50:11;20.83;;;12.47;;
15449;SDS011;7826;49.784;9.934;2024-02-28T02:52:38;21.43;;;12.63;;
15449;SDS011;7826;49.784;9.934;2024-02-28T02:55:04;25.77;;;12.83;;
15449;SDS011;7826;49.784;9.934;2024-02-28T02:57:31;21.57;;;12.20;;
15449;SDS011;7826;49.784;9.934;2024-02-28T02:59:58;21.63;;;11.67;;
15449;SDS011;7826;49.784;9.934;2024-02-28T03:02:24;19.10;;;11.40;;
15449;SDS011;7826;49.784;9.934;2024-02-28T03:04:50;22.03;;;12.03;;
15449;SDS011;7826;49.784;9.934;2024-02-28T03:07:16;22.93;;;11.93;;
15449;SDS011;7826;49.784;9.934;2024-02-28T03:09:42;22.33;;;12.40;;
15449;SDS011;7826;49.784;9.934;2024-02-28T03:12:09;18.97;;;11.00;;
15449;SDS011;7826;49.784;9.934;2024-02-28T03:14:35;20.10;;;11.47;;
15449;SDS011;7826;49.784;9.934;2024-02-28T03:17:02;20.07;;;11.83;;
15449;SDS011;7826;49.784;9.934;2024-02-28T03:19:29;21.13;;;10.60;;
15449;SDS011;7826;49.784;9.934;2024-02-28T03:21:55;17.40;;;10.50;;
15449;SDS011;7826;49.784;9.934;2024-02-28T03:24:21;19.30;;;10.00;;
15449;SDS011;7826;49.784;9.934;2024-02-28T03:26:47;17.80;;;9.43;;
15449;SDS011;7826;49.784;9.934;2024-02-28T03:29:13;17.00;;;9.83;;
15449;SDS011;7826;49.784;9.934;2024-02-28T03:31:39;17.50;;;9.87;;
15449;SDS011;7826;49.784;9.934;2024-02-28T03:34:05;21.00;;;10.23;;
15449;SDS011;7826;49.784;9.934;2024-02-28T03:36:31;18.27;;;10.33;;
15449;SDS011;7826;49.784;9.934;2024-02-28T03:38:58;21.07;;;10.13;;
15449;SDS011;7826;49.784;9.934;2024-02-28T03:41:24;19.53;;;10.93;;
15449;SDS011;7826;49.784;9.934;2024-02-28T03:43:50;20.23;;;10.87;;
15449;SDS011;7826;49.784;9.934;2024-02-28T03:46:16;18.27;;;10.53;;
15449;SDS011;7826;49.784;9.934;2024-02-28T03:48:42;21.30;;;11.03;;
15449;SDS011;7826;49.784;9.934;2024-02-28T03:51:08;20.33;;;10.77;;
15449;SDS011;7826;49.784;9.934;2024-02-28T03:53:35;20.23;;;10.33;;
15449;SDS011;7826;49.784;9.934;2024-02-28T03:56:01;18.80;;;10.23;;
15449;SDS011;7826;49.784;9.934;2024-02-28T03:58:28;19.23;;;11.13;;
15449;SDS011;7826;49.784;9.934;2024-02-28T04:00:54;16.97;;;9.90;;
15449;SDS011;7826;49.784;9.934;2024-02-28T04:03:20;18.63;;;10.33;;
15449;SDS011;7826;49.784;9.934;2024-02-28T04:05:47;18.73;;;10.40;;
15449;SDS011;7826;49.784;9.934;2024-02-28T04:08:13;18.37;;;10.23;;
15449;SDS011;7826;49.784;9.934;2024-02-28T04:10:39;21.20;;;10.63;;
15449;SDS011;7826;49.784;9.934;2024-02-28T04:13:05;20.47;;;11.13;;
15449;SDS011;7826;49.784;9.934;2024-02-28T04:15:32;20.60;;;10.80;;
15449;SDS011;7826;49.784;9.934;2024-02-28T04:17:58;19.23;;;10.70;;
15449;SDS011;7826;49.784;9.934;2024-02-28T04:20:24;20.13;;;10.67;;
15449;SDS011;7826;49.784;9.934;2024-02-28T04:22:50;16.37;;;10.13;;
15449;SDS011;7826;49.784;9.934;2024-02-28T04:25:16;21.13;;;10.97;;
15449;SDS011;7826;49.784;9.934;2024-02-28T04:27:42;20.17;;;10.67;;
15449;SDS011;7826;49.784;9.934;2024-02-28T04:30:09;18.00;;;10.37;;
15449;SDS011;7826;49.784;9.934;2024-02-28T04:32:35;20.10;;;10.87;;
15449;SDS011;7826;49.784;9.934;2024-02-28T04:35:03;20.23;;;11.20;;
15449;SDS011;7826;49.784;9.934;2024-02-28T04:37:30;19.87;;;11.13;;
15449;SDS011;7826;49.784;9.934;2024-02-28T04:39:56;20.40;;;10.80;;
15449;SDS011;7826;49.784;9.934;2024-02-28T04:42:22;21.17;;;10.93;;
15449;SDS011;7826;49.784;9.934;2024-02-28T04:44:48;17.27;;;9.90;;
15449;SDS011;7826;49.784;9.934;2024-02-28T04:47:14;17.20;;;9.63;;
15449;SDS011;7826;49.784;9.934;2024-02-28T04:49:40;17.70;;;9.40;;
15449;SDS011;7826;49.784;9.934;2024-02-28T04:52:06;21.57;;;11.07;;
15449;SDS011;7826;49.784;9.934;2024-02-28T04:54:32;20.40;;;11.10;;
15449;SDS011;7826;49.784;9.934;2024-02-28T04:56:59;21.57;;;12.07;;
15449;SDS011;7826;49.784;9.934;2024-02-28T04:59:25;24.27;;;12.90;;
15449;SDS011;7826;49.784;9.934;2024-02-28T05:01:51;25.00;;;13.37;;
15449;SDS011;7826;49.784;9.934;2024-02-28T05:04:18;24.83;;;12.93;;
15449;SDS011;7826;49.784;9.934;2024-02-28T05:06:44;22.40;;;11.63;;
15449;SDS011;7826;49.784;9.934;2024-02-28T05:09:10;19.87;;;11.70;;
15449;SDS011;7826;49.784;9.934;2024-02-28T05:11:37;23.90;;;11.77;;
15449;SDS011;7826;49.784;9.934;2024-02-28T05:14:03;25.03;;;13.10;;
15449;SDS011;7826;49.784;9.934;2024-02-28T05:16:29;24.63;;;11.73;;
15449;SDS011;7826;49.784;9.934;2024-02-28T05:18:55;21.47;;;12.13;;
15449;SDS011;7826;49.784;9.934;2024-02-28T05:21:21;24.27;;;12.40;;
15449;SDS011;7826;49.784;9.934;2024-02-28T05:23:48;23.80;;;11.80;;
15449;SDS011;7826;49.784;9.934;2024-02-28T05:26:14;24.07;;;12.27;;
15449;SDS011;7826;49.784;9.934;2024-02-28T05:28:40;23.20;;;12.27;;
15449;SDS011;7826;49.784;9.934;2024-02-28T05:31:27;20.80;;;12.20;;
15449;SDS011;7826;49.784;9.934;2024-02-28T05:33:54;26.23;;;11.73;;
15449;SDS011;7826;49.784;9.934;2024-02-28T05:36:25;24.70;;;12.53;;
15449;SDS011;7826;49.784;9.934;2024-02-28T05:38:53;21.03;;;11.57;;
15449;SDS011;7826;49.784;9.934;2024-02-28T05:41:20;22.43;;;12.13;;
15449;SDS011;7826;49.784;9.934;2024-02-28T05:43:47;24.57;;;13.17;;
15449;SDS011;7826;49.784;9.934;2024-02-28T05:46:13;22.57;;;12.03;;
15449;SDS011;7826;49.784;9.934;2024-02-28T05:48:44;22.03;;;12.27;;
15449;SDS011;7826;49.784;9.934;2024-02-28T05:51:11;25.67;;;12.50;;
15449;SDS011;7826;49.784;9.934;2024-02-28T05:53:38;25.67;;;13.27;;
15449;SDS011;7826;49.784;9.934;2024-02-28T05:56:06;25.97;;;12.37;;
15449;SDS011;7826;49.784;9.934;2024-02-28T05:58:39;24.70;;;12.80;;
15449;SDS011;7826;49.784;9.934;2024-02-28T06:01:06;25.43;;;12.07;;
15449;SDS011;7826;49.784;9.934;2024-02-28T06:03:33;23.47;;;12.93;;
15449;SDS011;7826;49.784;9.934;2024-02-28T06:05:59;23.50;;;12.47;;
15449;SDS011;7826;49.784;9.934;2024-02-28T06:08:25;25.43;;;12.23;;
15449;SDS011;7826;49.784;9.934;2024-02-28T06:10:51;24.33;;;12.00;;
15449;SDS011;7826;49.784;9.934;2024-02-28T06:13:18;23.07;;;12.43;;
15449;SDS011;7826;49.784;9.934;2024-02-28T06:15:44;23.73;;;11.63;;
15449;SDS011;7826;49.784;9.934;2024-02-28T06:18:10;22.13;;;11.50;;
15449;SDS011;7826;49.784;9.934;2024-02-28T06:20:36;21.03;;;11.53;;
15449;SDS011;7826;49.784;9.934;2024-02-28T06:23:03;26.67;;;13.07;;
15449;SDS011;7826;49.784;9.934;2024-02-28T06:25:30;20.70;;;11.10;;
15449;SDS011;7826;49.784;9.934;2024-02-28T06:27:59;22.27;;;11.27;;
15449;SDS011;7826;49.784;9.934;2024-02-28T06:30:27;23.63;;;12.40;;
15449;SDS011;7826;49.784;9.934;2024-02-28T06:32:54;22.77;;;11.33;;
15449;SDS011;7826;49.784;9.934;2024-02-28T06:35:20;24.20;;;11.23;;
15449;SDS011;7826;49.784;9.934;2024-02-28T06:37:46;21.43;;;10.97;;
15449;SDS011;7826;49.784;9.934;2024-02-28T06:40:15;19.57;;;10.77;;
15449;SDS011;7826;49.784;9.934;2024-02-28T06:42:41;19.60;;;11.50;;
15449;SDS011;7826;49.784;9.934;2024-02-28T06:45:08;15.83;;;9.27;;
15449;SDS011;7826;49.784;9.934;2024-02-28T06:47:34;15.27;;;9.30;;
15449;SDS011;7826;49.784;9.934;2024-02-28T06:50:04;16.87;;;9.30;;
15449;SDS011;7826;49.784;9.934;2024-02-28T06:52:31;16.87;;;8.90;;
15449;SDS011;7826;49.784;9.934;2024-02-28T06:54:58;16.03;;;8.80;;
15449;SDS011;7826;49.784;9.934;2024-02-28T06:57:26;17.77;;;8.77;;
15449;SDS011;7826;49.784;9.934;2024-02-28T06:59:52;15.37;;;9.17;;
15449;SDS011;7826;49.784;9.934;2024-02-28T07:02:18;17.50;;;9.80;;
15449;SDS011;7826;49.784;9.934;2024-02-28T07:04:44;19.30;;;10.03;;
15449;SDS011;7826;49.784;9.934;2024-02-28T07:07:11;20.33;;;10.60;;
15449;SDS011;7826;49.784;9.934;2024-02-28T07:09:40;23.23;;;11.60;;
15449;SDS011;7826;49.784;9.934;2024-02-28T07:12:06;18.80;;;10.27;;
15449;SDS011;7826;49.784;9.934;2024-02-28T07:14:32;24.10;;;11.97;;
15449;SDS011;7826;49.784;9.934;2024-02-28T07:16:58;24.20;;;11.40;;
15449;SDS011;7826;49.784;9.934;2024-02-28T07:19:25;22.20;;;12.40;;
15449;SDS011;7826;49.784;9.934;2024-02-28T07:21:51;21.60;;;11.77;;
15449;SDS011;7826;49.784;9.934;2024-02-28T07:24:17;21.03;;;11.20;;
15449;SDS011;7826;49.784;9.934;2024-02-28T07:26:43;20.07;;;10.87;;
15449;SDS011;7826;49.784;9.934;2024-02-28T07:29:09;18.50;;;10.20;;
15449;SDS011;7826;49.784;9.934;2024-02-28T07:31:35;23.30;;;11.50;;
15449;SDS011;7826;49.784;9.934;2024-02-28T07:34:01;21.27;;;11.13;;
15449;SDS011;7826;49.784;9.934;2024-02-28T07:36:27;23.20;;;12.10;;
15449;SDS011;7826;49.784;9.934;2024-02-28T07:38:54;21.60;;;11.67;;
15449;SDS011;7826;49.784;9.934;2024-02-28T07:41:20;24.73;;;11.93;;
15449;SDS011;7826;49.784;9.934;2024-02-28T07:43:46;23.93;;;12.27;;
15449;SDS011;7826;49.784;9.934;2024-02-28T07:46:12;22.30;;;12.50;;
15449;SDS011;7826;49.784;9.934;2024-02-28T07:48:39;26.03;;;12.33;;
15449;SDS011;7826;49.784;9.934;2024-02-28T07:51:05;24.57;;;12.37;;
15449;SDS011;7826;49.784;9.934;2024-02-28T07:53:32;22.70;;;11.97;;
15449;SDS011;7826;49.784;9.934;2024-02-28T07:55:58;24.03;;;12.53;;
15449;SDS011;7826;49.784;9.934;2024-02-28T07:58:25;22.50;;;12.13;;
15449;SDS011;7826;49.784;9.934;2024-02-28T08:00:51;24.10;;;12.90;;
15449;SDS011;7826;49.784;9.934;2024-02-28T08:03:20;24.70;;;13.83;;
15449;SDS011;7826;49.784;9.934;2024-02-28T08:05:46;24.00;;;13.53;;
15449;SDS011;7826;49.784;9.934;2024-02-28T08:08:14;25.33;;;13.87;;
15449;SDS011;7826;49.784;9.934;2024-02-28T08:10:40;25.93;;;13.77;;
15449;SDS011;7826;49.784;9.934;2024-02-28T08:13:06;21.93;;;12.87;;
15449;SDS011;7826;49.784;9.934;2024-02-28T08:15:33;27.10;;;13.30;;
15449;SDS011;7826;49.784;9.934;2024-02-28T08:17:59;24.50;;;13.47;;
15449;SDS011;7826;49.784;9.934;2024-02-28T08:20:25;25.00;;;13.20;;
15449;SDS011;7826;49.784;9.934;2024-02-28T08:22:52;25.20;;;13.30;;
15449;SDS011;7826;49.784;9.934;2024-02-28T08:25:18;26.10;;;13.50;;
15449;SDS011;7826;49.784;9.934;2024-02-28T08:27:45;27.17;;;14.10;;
15449;SDS011;7826;49.784;9.934;2024-02-28T08:30:11;27.00;;;13.50;;
15449;SDS011;7826;49.784;9.934;2024-02-28T08:32:38;24.57;;;12.97;;
15449;SDS011;7826;49.784;9.934;2024-02-28T08:35:06;26.17;;;12.53;;
15449;SDS011;7826;49.784;9.934;2024-02-28T08:37:33;23.83;;;12.83;;
15449;SDS011;7826;49.784;9.934;2024-02-28T08:40:00;26.53;;;13.47;;
15449;SDS011;7826;49.784;9.934;2024-02-28T08:42:26;24.77;;;13.07;;
15449;SDS011;7826;49.784;9.934;2024-02-28T08:44:53;25.47;;;13.27;;
15449;SDS011;7826;49.784;9.934;2024-02-28T08:47:23;24.33;;;13.20;;
15449;SDS011;7826;49.784;9.934;2024-02-28T08:49:50;23.33;;;12.83;;
15449;SDS011;7826;49.784;9.934;2024-02-28T08:52:17;25.27;;;13.40;;
15449;SDS011;7826;49.784;9.934;2024-02-28T08:54:43;22.80;;;12.27;;
15449;SDS011;7826;49.784;9.934;2024-02-28T08:57:09;24.77;;;13.47;;
15449;SDS011;7826;49.784;9.934;2024-02-28T08:59:35;21.70;;;12.43;;
15449;SDS011;7826;49.784;9.934;2024-02-28T09:02:02;23.97;;;12.93;;
15449;SDS011;7826;49.784;9.934;2024-02-28T09:04:29;24.17;;;12.90;;
15449;SDS011;7826;49.784;9.934;2024-02-28T09:06:55;21.10;;;11.73;;
15449;SDS011;7826;49.784;9.934;2024-02-28T09:09:21;22.07;;;12.40;;
15449;SDS011;7826;49.784;9.934;2024-02-28T09:11:47;21.73;;;12.63;;
15449;SDS011;7826;49.784;9.934;2024-02-28T09:14:13;20.60;;;11.63;;
15449;SDS011;7826;49.784;9.934;2024-02-28T09:16:40;18.73;;;11.23;;
15449;SDS011;7826;49.784;9.934;2024-02-28T09:19:06;19.27;;;10.97;;
15449;SDS011;7826;49.784;9.934;2024-02-28T09:21:32;22.53;;;11.53;;
15449;SDS011;7826;49.784;9.934;2024-02-28T09:23:58;19.30;;;11.50;;
15449;SDS011;7826;49.784;9.934;2024-02-28T09:26:24;18.87;;;10.93;;
15449;SDS011;7826;49.784;9.934;2024-02-28T09:28:51;21.47;;;11.37;;
15449;SDS011;7826;49.784;9.934;2024-02-28T09:31:17;19.00;;;10.60;;
15449;SDS011;7826;49.784;9.934;2024-02-28T09:33:43;20.43;;;11.30;;
15449;SDS011;7826;49.784;9.934;2024-02-28T09:36:11;18.43;;;10.27;;
15449;SDS011;7826;49.784;9.934;2024-02-28T09:38:38;18.07;;;10.00;;
15449;SDS011;7826;49.784;9.934;2024-02-28T09:41:06;17.13;;;10.67;;
15449;SDS011;7826;49.784;9.934;2024-02-28T09:43:32;18.63;;;10.30;;
15449;SDS011;7826;49.784;9.934;2024-02-28T09:46:05;17.97;;;10.27;;
15449;SDS011;7826;49.784;9.934;2024-02-28T09:48:40;18.20;;;9.67;;
15449;SDS011;7826;49.784;9.934;2024-02-28T09:51:08;16.87;;;9.63;;
15449;SDS011;7826;49.784;9.934;2024-02-28T09:53:35;17.73;;;9.73;;
15449;SDS011;7826;49.784;9.934;2024-02-28T09:56:02;18.93;;;10.47;;
15449;SDS011;7826;49.784;9.934;2024-02-28T09:58:29;18.20;;;10.00;;
15449;SDS011;7826;49.784;9.934;2024-02-28T10:00:57;17.23;;;10.10;;
15449;SDS011;7826;49.784;9.934;2024-02-28T10:03:27;19.23;;;10.20;;
15449;SDS011;7826;49.784;9.934;2024-02-28T10:05:53;18.37;;;10.63;;
15449;SDS011;7826;49.784;9.934;2024-02-28T10:08:21;15.93;;;10.00;;
15449;SDS011;7826;49.784;9.934;2024-02-28T10:10:47;19.20;;;10.90;;
15449;SDS011;7826;49.784;9.934;2024-02-28T10:13:17;17.97;;;11.17;;
15449;SDS011;7826;49.784;9.934;2024-02-28T10:15:43;16.77;;;10.10;;
15449;SDS011;7826;49.784;9.934;2024-02-28T10:18:10;20.73;;;10.83;;
15449;SDS011;7826;49.784;9.934;2024-02-28T10:20:36;18.77;;;10.83;;
15449;SDS011;7826;49.784;9.934;2024-02-28T10:23:07;17.70;;;10.83;;
15449;SDS011;7826;49.784;9.934;2024-02-28T10:25:44;17.70;;;10.20;;
15449;SDS011;7826;49.784;9.934;2024-02-28T10:28:11;17.90;;;10.80;;
15449;SDS011;7826;49.784;9.934;2024-02-28T10:30:42;16.73;;;10.37;;
15449;SDS011;7826;49.784;9.934;2024-02-28T10:33:15;22.13;;;11.63;;
15449;SDS011;7826;49.784;9.934;2024-02-28T10:35:42;19.63;;;11.30;;
15449;SDS011;7826;49.784;9.934;2024-02-28T10:38:13;19.53;;;10.93;;
15449;SDS011;7826;49.784;9.934;2024-02-28T10:40:42;17.53;;;10.90;;
15449;SDS011;7826;49.784;9.934;2024-02-28T10:43:09;19.27;;;11.03;;
15449;SDS011;7826;49.784;9.934;2024-02-28T10:45:37;18.20;;;10.33;;
15449;SDS011;7826;49.784;9.934;2024-02-28T10:48:07;19.47;;;10.90;;
15449;SDS011;7826;49.784;9.934;2024-02-28T10:50:34;20.13;;;10.87;;
15449;SDS011;7826;49.784;9.934;2024-02-28T10:53:04;16.63;;;10.73;;
15449;SDS011;7826;49.784;9.934;2024-02-28T10:55:39;20.50;;;11.40;;
15449;SDS011;7826;49.784;9.934;2024-02-28T10:58:07;18.60;;;11.53;;
15449;SDS011;7826;49.784;9.934;2024-02-28T11:00:35;19.10;;;10.87;;
15449;SDS011;7826;49.784;9.934;2024-02-28T11:03:07;17.90;;;10.10;;
15449;SDS011;7826;49.784;9.934;2024-02-28T11:05:36;16.60;;;9.07;;
15449;SDS011;7826;49.784;9.934;2024-02-28T11:08:04;15.60;;;9.57;;
15449;SDS011;7826;49.784;9.934;2024-02-28T11:10:34;14.30;;;8.27;;
15449;SDS011;7826;49.784;9.934;2024-02-28T11:13:07;14.80;;;8.60;;
15449;SDS011;7826;49.784;9.934;2024-02-28T11:15:36;14.63;;;8.90;;
15449;SDS011;7826;49.784;9.934;2024-02-28T11:18:09;16.03;;;9.23;;
15449;SDS011;7826;49.784;9.934;2024-02-28T11:20:36;13.60;;;8.17;;
15449;SDS011;7826;49.784;9.934;2024-02-28T11:23:02;15.77;;;9.00;;
15449;SDS011;7826;49.784;9.934;2024-02-28T11:25:28;14.90;;;8.80;;
15449;SDS011;7826;49.784;9.934;2024-02-28T11:27:54;13.87;;;8.83;;
15449;SDS011;7826;49.784;9.934;2024-02-28T11:30:21;15.20;;;8.77;;
15449;SDS011;7826;49.784;9.934;2024-02-28T11:32:47;16.17;;;9.17;;
15449;SDS011;7826;49.784;9.934;2024-02-28T11:35:13;12.90;;;7.93;;
15449;SDS011;7826;49.784;9.934;2024-02-28T11:37:40;15.27;;;8.53;;
15449;SDS011;7826;49.784;9.934;2024-02-28T11:40:07;17.23;;;9.27;;
15449;SDS011;7826;49.784;9.934;2024-02-28T11:42:37;13.53;;;8.73;;
15449;SDS011;7826;49.784;9.934;2024-02-28T11:45:05;14.60;;;9.07;;
15449;SDS011;7826;49.784;9.934;2024-02-28T11:47:31;14.83;;;9.00;;
15449;SDS011;7826;49.784;9.934;2024-02-28T11:50:01;17.17;;;9.57;;
15449;SDS011;7826;49.784;9.934;2024-02-28T11:52:31;17.93;;;10.37;;
15449;SDS011;7826;49.784;9.934;2024-02-28T11:54:58;18.37;;;9.53;;
15449;SDS011;7826;49.784;9.934;2024-02-28T11:57:24;14.50;;;8.40;;
15449;SDS011;7826;49.784;9.934;2024-02-28T11:59:51;12.30;;;8.20;;
15449;SDS011;7826;49.784;9.934;2024-02-28T12:02:17;13.13;;;8.17;;
15449;SDS011;7826;49.784;9.934;2024-02-28T12:04:47;13.13;;;7.73;;
15449;SDS011;7826;49.784;9.934;2024-02-28T12:07:15;12.80;;;8.23;;
15449;SDS011;7826;49.784;9.934;2024-02-28T12:09:41;12.87;;;7.83;;
15449;SDS011;7826;49.784;9.934;2024-02-28T12:12:11;13.10;;;8.20;;
15449;SDS011;7826;49.784;9.934;2024-02-28T12:14:37;12.43;;;7.40;;
15449;SDS011;7826;49.784;9.934;2024-02-28T12:17:04;11.77;;;6.90;;
15449;SDS011;7826;49.784;9.934;2024-02-28T12:19:30;11.60;;;7.67;;
15449;SDS011;7826;49.784;9.934;2024-02-28T12:21:56;13.63;;;8.67;;
15449;SDS011;7826;49.784;9.934;2024-02-28T12:24:24;12.97;;;7.70;;
15449;SDS011;7826;49.784;9.934;2024-02-28T12:26:50;12.33;;;7.93;;
15449;SDS011;7826;49.784;9.934;2024-02-28T12:29:16;12.70;;;7.63;;
15449;SDS011;7826;49.784;9.934;2024-02-28T12:31:42;11.87;;;7.60;;
15449;SDS011;7826;49.784;9.934;2024-02-28T12:34:08;10.07;;;7.20;;
15449;SDS011;7826;49.784;9.934;2024-02-28T12:36:34;9.77;;;7.07;;
15449;SDS011;7826;49.784;9.934;2024-02-28T12:39:01;8.70;;;6.90;;
15449;SDS011;7826;49.784;9.934;2024-02-28T12:41:28;10.47;;;7.30;;
15449;SDS011;7826;49.784;9.934;2024-02-28T12:43:54;10.37;;;7.30;;
15449;SDS011;7826;49.784;9.934;2024-02-28T12:46:20;9.80;;;7.03;;
15449;SDS011;7826;49.784;9.934;2024-02-28T12:48:46;10.97;;;7.43;;
15449;SDS011;7826;49.784;9.934;2024-02-28T12:51:20;11.50;;;7.27;;
15449;SDS011;7826;49.784;9.934;2024-02-28T12:54:02;9.23;;;7.30;;
15449;SDS011;7826;49.784;9.934;2024-02-28T12:56:29;10.57;;;7.67;;
15449;SDS011;7826;49.784;9.934;2024-02-28T12:58:56;9.13;;;7.00;;
15449;SDS011;7826;49.784;9.934;2024-02-28T13:01:26;9.50;;;7.43;;
15449;SDS011;7826;49.784;9.934;2024-02-28T13:03:52;10.43;;;8.03;;
15449;SDS011;7826;49.784;9.934;2024-02-28T13:06:18;8.67;;;6.93;;
15449;SDS011;7826;49.784;9.934;2024-02-28T13:08:44;10.10;;;7.50;;
15449;SDS011;7826;49.784;9.934;2024-02-28T13:11:11;10.23;;;7.37;;
15449;SDS011;7826;49.784;9.934;2024-02-28T13:13:37;8.50;;;7.00;;
15449;SDS011;7826;49.784;9.934;2024-02-28T13:16:03;9.10;;;6.83;;
15449;SDS011;7826;49.784;9.934;2024-02-28T13:18:30;9.17;;;7.57;;
15449;SDS011;7826;49.784;9.934;2024-02-28T13:20:56;9.07;;;7.27;;
15449;SDS011;7826;49.784;9.934;2024-02-28T13:23:22;8.73;;;7.10;;
15449;SDS011;7826;49.784;9.934;2024-02-28T13:25:48;8.77;;;7.07;;
15449;SDS011;7826;49.784;9.934;2024-02-28T13:28:15;9.60;;;6.80;;
15449;SDS011;7826;49.784;9.934;2024-02-28T13:30:41;8.43;;;7.07;;
15449;SDS011;7826;49.784;9.934;2024-02-28T13:33:07;9.30;;;7.20;;
15449;SDS011;7826;49.784;9.934;2024-02-28T13:35:33;8.87;;;7.67;;
15449;SDS011;7826;49.784;9.934;2024-02-28T13:38:00;8.67;;;7.23;;
15449;SDS011;7826;49.784;9.934;2024-02-28T13:40:27;8.90;;;7.07;;
15449;SDS011;7826;49.784;9.934;2024-02-28T13:42:53;8.63;;;7.43;;
15449;SDS011;7826;49.784;9.934;2024-02-28T13:45:19;9.17;;;7.33;;
15449;SDS011;7826;49.784;9.934;2024-02-28T13:47:46;9.33;;;7.70;;
15449;SDS011;7826;49.784;9.934;2024-02-28T13:50:12;8.77;;;7.43;;
15449;SDS011;7826;49.784;9.934;2024-02-28T13:52:39;10.73;;;8.00;;
15449;SDS011;7826;49.784;9.934;2024-02-28T13:55:06;10.73;;;8.13;;
15449;SDS011;7826;49.784;9.934;2024-02-28T13:57:34;9.37;;;7.53;;
15449;SDS011;7826;49.784;9.934;2024-02-28T14:00:01;11.70;;;7.97;;
15449;SDS011;7826;49.784;9.934;2024-02-28T14:02:32;8.37;;;7.40;;
15449;SDS011;7826;49.784;9.934;2024-02-28T14:04:58;9.97;;;7.73;;
15449;SDS011;7826;49.784;9.934;2024-02-28T14:07:24;10.13;;;7.07;;
15449;SDS011;7826;49.784;9.934;2024-02-28T14:09:51;11.03;;;8.30;;
15449;SDS011;7826;49.784;9.934;2024-02-28T14:12:17;10.57;;;7.73;;
15449;SDS011;7826;49.784;9.934;2024-02-28T14:14:43;10.40;;;7.90;;
15449;SDS011;7826;49.784;9.934;2024-02-28T14:17:09;10.80;;;7.53;;
15449;SDS011;7826;49.784;9.934;2024-02-28T14:19:35;11.47;;;8.37;;
15449;SDS011;7826;49.784;9.934;2024-02-28T14:22:02;13.87;;;8.17;;
15449;SDS011;7826;49.784;9.934;2024-02-28T14:24:29;9.67;;;7.50;;
15449;SDS011;7826;49.784;9.934;2024-02-28T14:26:55;11.97;;;8.47;;
15449;SDS011;7826;49.784;9.934;2024-02-28T14:29:21;11.73;;;8.00;;
15449;SDS011;7826;49.784;9.934;2024-02-28T14:31:47;13.83;;;8.77;;
15449;SDS011;7826;49.784;9.934;2024-02-28T14:34:13;11.07;;;7.90;;
15449;SDS011;7826;49.784;9.934;2024-02-28T14:36:40;11.97;;;8.30;;